Time;durP1;ratioP1;P1;durP2;ratioP2;P2;SDS_P1;SDS_P2;PMS_P1;PMS_P2;Temp;Humidity;BMP_temperature;BMP_pressure;BME280_temperature;BME280_humidity;BME280_pressure;Samples;Min_cycle;Max_cycle;Signal;HPM_P1;HPM_P2
2023/05/06 00:01:15;;;;;;;9.15;5.22;;;13.10;99.90;;;;;;5027565;28;20098;-92
2023/05/06 00:03:40;;;;;;;8.88;5.72;;;13.40;99.90;;;;;;5013498;28;20037;-93
2023/05/06 00:06:08;;;;;;;9.13;5.55;;;13.00;99.90;;;;;;5027390;28;20040;-92
2023/05/06 00:08:34;;;;;;;10.43;6.15;;;13.00;99.90;;;;;;5007123;28;20037;-92
2023/05/06 00:11:00;;;;;;;8.82;5.60;;;13.40;99.90;;;;;;5023328;28;20052;-93
2023/05/06 00:13:26;;;;;;;11.52;7.85;;;13.00;99.90;;;;;;5014932;28;20030;-92
2023/05/06 00:15:51;;;;;;;9.60;5.60;;;12.90;99.90;;;;;;5042799;28;20116;-93
2023/05/06 00:18:17;;;;;;;12.45;7.20;;;13.50;99.90;;;;;;5026546;28;20523;-91
2023/05/06 00:20:43;;;;;;;13.00;8.50;;;13.00;99.90;;;;;;5024128;28;20041;-91
2023/05/06 00:23:09;;;;;;;10.32;7.25;;;12.90;99.90;;;;;;5008672;28;20049;-92
2023/05/06 00:25:35;;;;;;;11.57;7.70;;;13.00;99.90;;;;;;5015129;28;20052;-91
2023/05/06 00:28:01;;;;;;;9.45;7.53;;;12.80;99.90;;;;;;5011372;28;20038;-91
2023/05/06 00:30:27;;;;;;;10.32;7.55;;;12.80;99.90;;;;;;5036936;28;20129;-92
2023/05/06 00:32:53;;;;;;;10.60;5.53;;;12.70;99.90;;;;;;5019968;28;20409;-91
2023/05/06 00:35:18;;;;;;;9.80;6.80;;;12.70;99.90;;;;;;5023198;28;20056;-92
2023/05/06 00:37:45;;;;;;;10.20;6.50;;;12.60;99.90;;;;;;5012586;28;20110;-91
2023/05/06 00:40:11;;;;;;;9.20;5.80;;;13.00;99.90;;;;;;5006713;28;20041;-92
2023/05/06 00:42:37;;;;;;;9.88;7.15;;;12.60;99.90;;;;;;5027250;28;20037;-91
2023/05/06 00:45:03;;;;;;;9.98;7.13;;;12.60;99.90;;;;;;5029562;28;20041;-92
2023/05/06 00:47:29;;;;;;;10.40;7.13;;;12.40;99.90;;;;;;5017035;28;20771;-92
2023/05/06 00:49:55;;;;;;;10.35;7.15;;;12.40;99.90;;;;;;5003354;28;20495;-90
2023/05/06 00:52:21;;;;;;;11.90;7.68;;;12.40;99.90;;;;;;5048466;28;20038;-93
2023/05/06 00:54:47;;;;;;;7.45;5.72;;;12.40;99.90;;;;;;5030128;28;20061;-91
2023/05/06 00:57:13;;;;;;;9.63;6.47;;;12.30;99.90;;;;;;5029930;28;20045;-90
2023/05/06 00:59:39;;;;;;;11.23;6.05;;;12.30;99.90;;;;;;5012601;28;20046;-91
2023/05/06 01:02:08;;;;;;;10.40;7.40;;;12.30;99.90;;;;;;5008758;28;20053;-92
2023/05/06 01:04:34;;;;;;;12.88;8.93;;;12.30;99.90;;;;;;5023723;28;20550;-91
2023/05/06 01:07:07;;;;;;;11.38;7.65;;;13.00;99.90;;;;;;4999977;28;20030;-91
2023/05/06 01:09:35;;;;;;;12.73;7.82;;;12.70;99.90;;;;;;5007280;28;20038;-91
2023/05/06 01:12:22;;;;;;;12.82;8.00;;;12.40;99.90;;;;;;5030535;28;20044;-92
2023/05/06 01:14:53;;;;;;;14.77;9.02;;;12.30;99.90;;;;;;5029794;28;20094;-92
2023/05/06 01:17:25;;;;;;;11.25;8.68;;;12.30;99.90;;;;;;5014047;28;20088;-90
2023/05/06 01:19:54;;;;;;;14.18;8.60;;;12.30;99.90;;;;;;5012496;28;20037;-91
2023/05/06 01:22:22;;;;;;;16.30;10.00;;;12.30;99.90;;;;;;5020443;28;20170;-92
2023/05/06 01:24:47;;;;;;;13.40;8.60;;;12.30;99.90;;;;;;5026312;28;20041;-92
2023/05/06 01:27:15;;;;;;;13.18;8.93;;;12.50;99.90;;;;;;5012888;28;20045;-91
2023/05/06 01:29:43;;;;;;;12.85;8.40;;;12.20;99.90;;;;;;5020405;28;20129;-92
2023/05/06 01:32:29;;;;;;;16.15;9.60;;;12.20;99.90;;;;;;5009443;28;20559;-91
2023/05/06 01:34:58;;;;;;;11.68;8.18;;;12.20;99.90;;;;;;5005685;28;20550;-92
2023/05/06 01:37:51;;;;;;;14.32;9.20;;;12.30;99.90;;;;;;5027284;28;20050;-91
2023/05/06 01:40:17;;;;;;;14.48;8.95;;;12.20;99.90;;;;;;5004976;28;20107;-92
2023/05/06 01:42:47;;;;;;;11.30;8.65;;;12.20;99.90;;;;;;5014548;28;20046;-91
2023/05/06 01:45:15;;;;;;;13.85;8.90;;;12.30;99.90;;;;;;5025240;28;20041;-92
2023/05/06 01:47:41;;;;;;;13.00;8.75;;;12.20;99.90;;;;;;5034578;28;20052;-92
2023/05/06 01:50:07;;;;;;;12.95;8.60;;;12.20;99.90;;;;;;5038182;28;20040;-92
2023/05/06 01:52:33;;;;;;;12.10;9.00;;;12.20;99.90;;;;;;5014722;28;20958;-91
2023/05/06 01:54:58;;;;;;;14.27;8.60;;;12.20;99.90;;;;;;5048906;28;20171;-92
2023/05/06 01:57:24;;;;;;;14.10;9.68;;;12.10;99.90;;;;;;5047684;28;20038;-91
2023/05/06 01:59:50;;;;;;;13.18;9.57;;;12.10;99.90;;;;;;5015363;28;20039;-91
2023/05/06 02:02:15;;;;;;;14.98;9.88;;;12.10;99.90;;;;;;5029068;28;20036;-91
2023/05/06 02:04:44;;;;;;;13.57;8.40;;;12.00;99.90;;;;;;5004614;28;20457;-91
2023/05/06 02:07:10;;;;;;;13.82;9.60;;;12.00;99.90;;;;;;5023234;28;20049;-91
2023/05/06 02:09:36;;;;;;;12.32;9.45;;;12.00;99.90;;;;;;5023983;28;20046;-91
2023/05/06 02:12:01;;;;;;;15.25;10.98;;;12.00;99.90;;;;;;5021448;28;20386;-91
2023/05/06 02:14:30;;;;;;;12.50;8.32;;;11.90;99.90;;;;;;5024188;28;20061;-91
2023/05/06 02:16:56;;;;;;;12.85;9.18;;;11.80;99.90;;;;;;5044678;28;20038;-92
2023/05/06 02:19:21;;;;;;;10.48;7.20;;;11.80;99.90;;;;;;5013864;28;20108;-91
2023/05/06 02:21:47;;;;;;;14.70;8.90;;;11.90;99.90;;;;;;5040539;28;20041;-91
2023/05/06 02:24:13;;;;;;;15.73;9.02;;;11.80;99.90;;;;;;5027573;28;20045;-92
2023/05/06 02:26:38;;;;;;;8.10;5.35;;;11.80;99.90;;;;;;5016182;28;20484;-92
2023/05/06 02:29:04;;;;;;;9.35;6.28;;;11.80;99.90;;;;;;5032937;28;20037;-91
2023/05/06 02:31:30;;;;;;;8.18;5.63;;;11.80;99.90;;;;;;5018839;28;20048;-91
2023/05/06 02:33:56;;;;;;;12.35;8.88;;;12.10;99.90;;;;;;5021935;28;20509;-91
2023/05/06 02:36:21;;;;;;;11.15;6.90;;;11.80;99.90;;;;;;5044067;28;20051;-91
2023/05/06 02:38:47;;;;;;;12.98;9.23;;;11.80;99.90;;;;;;5031019;28;20037;-90
2023/05/06 02:41:13;;;;;;;11.07;7.15;;;11.80;99.90;;;;;;5007969;28;20129;-91
2023/05/06 02:43:38;;;;;;;13.75;9.52;;;11.80;99.90;;;;;;5044375;28;20119;-91
2023/05/06 02:46:10;;;;;;;11.57;8.50;;;11.80;99.90;;;;;;5011738;28;20040;-90
2023/05/06 02:48:36;;;;;;;10.50;7.25;;;11.70;99.90;;;;;;5009824;28;20128;-90
2023/05/06 02:51:01;;;;;;;12.10;7.65;;;11.70;99.90;;;;;;5018064;28;20065;-91
2023/05/06 02:53:27;;;;;;;11.07;7.32;;;11.70;99.90;;;;;;5013741;28;20052;-92
2023/05/06 02:55:53;;;;;;;8.38;6.32;;;11.90;99.90;;;;;;5042167;28;20041;-91
2023/05/06 02:58:19;;;;;;;11.60;8.68;;;11.70;99.90;;;;;;5042867;28;20041;-90
2023/05/06 03:00:47;;;;;;;13.52;9.05;;;11.60;99.90;;;;;;5019181;28;20037;-91
2023/05/06 03:03:13;;;;;;;12.57;8.60;;;11.70;99.90;;;;;;5042795;28;20044;-90
2023/05/06 03:05:39;;;;;;;10.75;7.70;;;11.70;99.90;;;;;;5014971;28;20592;-91
2023/05/06 03:08:05;;;;;;;11.10;7.68;;;11.50;99.90;;;;;;5022258;28;20495;-91
2023/05/06 03:10:33;;;;;;;10.55;7.82;;;11.50;99.90;;;;;;5040938;28;20053;-90
2023/05/06 03:12:59;;;;;;;9.27;7.40;;;11.50;99.90;;;;;;5034750;28;20036;-90
2023/05/06 03:15:25;;;;;;;12.68;8.30;;;11.90;99.90;;;;;;5014251;28;20060;-90
2023/05/06 03:17:51;;;;;;;9.15;6.68;;;12.10;99.90;;;;;;5038403;28;20112;-91
2023/05/06 03:20:19;;;;;;;6.93;4.45;;;11.20;99.90;;;;;;5005113;28;20523;-91
2023/05/06 03:22:44;;;;;;;8.98;5.05;;;11.30;99.90;;;;;;5037191;28;20133;-91
2023/05/06 03:25:10;;;;;;;10.23;6.65;;;11.60;99.90;;;;;;5023334;28;20072;-90
2023/05/06 03:27:44;;;;;;;10.80;6.82;;;11.30;99.90;;;;;;5018275;28;20045;-90
2023/05/06 03:30:10;;;;;;;7.93;6.28;;;11.40;99.90;;;;;;5024318;28;20098;-91
2023/05/06 03:32:37;;;;;;;10.27;7.65;;;11.20;99.90;;;;;;5022287;28;20064;-90
2023/05/06 03:35:03;;;;;;;9.00;7.07;;;11.20;99.90;;;;;;5046447;28;20210;-90
2023/05/06 03:37:29;;;;;;;9.68;7.15;;;11.20;99.90;;;;;;5033088;28;20072;-90
2023/05/06 03:39:55;;;;;;;10.00;7.00;;;11.20;99.90;;;;;;5021307;28;20542;-90
2023/05/06 03:42:21;;;;;;;13.05;7.72;;;11.20;99.90;;;;;;5044243;28;20045;-91
2023/05/06 03:44:46;;;;;;;10.52;7.32;;;11.20;99.90;;;;;;5026544;28;20033;-90
2023/05/06 03:47:12;;;;;;;10.30;7.57;;;11.00;99.90;;;;;;5016163;28;20088;-90
2023/05/06 03:49:38;;;;;;;10.48;7.78;;;11.10;99.90;;;;;;5024729;28;20072;-91
2023/05/06 03:52:04;;;;;;;10.48;7.30;;;11.00;99.90;;;;;;5023196;28;20045;-90
2023/05/06 03:54:30;;;;;;;11.35;7.30;;;11.00;99.90;;;;;;5020571;28;20044;-91
2023/05/06 03:56:55;;;;;;;9.40;6.70;;;11.20;99.90;;;;;;5020630;28;20037;-90
2023/05/06 03:59:21;;;;;;;10.15;7.38;;;10.90;99.90;;;;;;5008619;28;20467;-91
2023/05/06 04:01:47;;;;;;;10.80;7.03;;;10.90;99.90;;;;;;5016885;28;20032;-90
2023/05/06 04:04:12;;;;;;;9.75;6.28;;;10.90;99.90;;;;;;5043308;28;20052;-90
2023/05/06 04:06:40;;;;;;;11.40;7.65;;;11.20;99.90;;;;;;5034956;28;20051;-90
2023/05/06 04:09:06;;;;;;;10.50;6.15;;;10.90;99.90;;;;;;5020244;28;20095;-91
2023/05/06 04:11:31;;;;;;;9.95;6.50;;;10.90;99.90;;;;;;5037121;28;20034;-90
2023/05/06 04:13:57;;;;;;;8.98;6.72;;;10.90;99.90;;;;;;5027261;28;20041;-90
2023/05/06 04:16:26;;;;;;;10.00;6.35;;;11.10;99.90;;;;;;5022352;28;20046;-90
2023/05/06 04:18:51;;;;;;;7.78;5.20;;;10.80;99.90;;;;;;5043546;28;20083;-90
2023/05/06 04:21:17;;;;;;;7.60;5.38;;;10.80;99.90;;;;;;5043919;28;20041;-90
2023/05/06 04:23:43;;;;;;;7.90;4.85;;;10.80;99.90;;;;;;5021895;28;20037;-90
2023/05/06 04:26:09;;;;;;;8.00;4.82;;;10.80;99.90;;;;;;5044507;28;20033;-90
2023/05/06 04:28:35;;;;;;;10.23;5.57;;;10.90;99.90;;;;;;5028743;28;20048;-88
2023/05/06 04:31:01;;;;;;;13.48;7.13;;;10.80;99.90;;;;;;5024657;28;20048;-90
2023/05/06 04:33:27;;;;;;;13.90;7.50;;;10.80;99.90;;;;;;5046208;28;20029;-89
2023/05/06 04:35:53;;;;;;;21.92;9.35;;;10.70;99.90;;;;;;5044779;28;20033;-90
2023/05/06 04:38:20;;;;;;;18.02;7.07;;;10.70;99.90;;;;;;5046813;28;20079;-89
2023/05/06 04:40:54;;;;;;;17.60;7.47;;;10.80;99.90;;;;;;5026647;28;20037;-89
2023/05/06 04:43:19;;;;;;;22.17;7.93;;;10.80;99.90;;;;;;5032882;28;20590;-89
2023/05/06 04:45:48;;;;;;;14.30;7.35;;;10.80;99.90;;;;;;5030596;28;20033;-89
2023/05/06 04:48:21;;;;;;;18.88;9.68;;;10.80;99.90;;;;;;5029037;28;20053;-90
2023/05/06 04:50:47;;;;;;;23.50;7.70;;;11.20;99.90;;;;;;5041101;28;20033;-90
2023/05/06 04:53:14;;;;;;;27.63;8.27;;;10.90;99.90;;;;;;5038809;28;20037;-90
2023/05/06 04:55:39;;;;;;;10.18;6.40;;;10.90;99.90;;;;;;5034219;28;20056;-89
2023/05/06 04:58:06;;;;;;;6.57;3.97;;;10.90;99.90;;;;;;5024233;28;20230;-90
2023/05/06 05:00:32;;;;;;;5.53;3.72;;;10.90;99.90;;;;;;5033940;28;20040;-90
2023/05/06 05:02:58;;;;;;;6.45;4.45;;;10.90;99.90;;;;;;5026584;28;20056;-90
2023/05/06 05:05:25;;;;;;;7.30;5.00;;;10.90;99.90;;;;;;5008808;28;20053;-88
2023/05/06 05:07:50;;;;;;;7.63;4.85;;;11.00;99.90;;;;;;5015111;28;20039;-89
2023/05/06 05:10:16;;;;;;;7.00;4.35;;;11.00;99.90;;;;;;5006982;28;20061;-90
2023/05/06 05:12:42;;;;;;;7.68;4.85;;;11.00;99.90;;;;;;5037442;28;20771;-90
2023/05/06 05:15:11;;;;;;;7.55;5.82;;;11.10;99.90;;;;;;5041799;28;20044;-88
2023/05/06 05:17:37;;;;;;;8.18;5.10;;;11.10;99.90;;;;;;5022698;28;20045;-89
2023/05/06 05:20:09;;;;;;;16.33;10.40;;;11.10;99.90;;;;;;5044539;28;20044;-89
2023/05/06 05:22:35;;;;;;;8.10;5.63;;;11.20;99.90;;;;;;5028124;28;20127;-89
2023/05/06 05:25:01;;;;;;;11.50;6.88;;;11.20;99.90;;;;;;5031908;28;20048;-89
2023/05/06 05:27:26;;;;;;;11.05;7.10;;;11.20;99.90;;;;;;5037924;28;20029;-89
2023/05/06 05:30:01;;;;;;;11.18;6.78;;;11.30;99.90;;;;;;5023445;28;20033;-90
2023/05/06 05:32:28;;;;;;;7.57;5.70;;;11.30;99.90;;;;;;5040413;28;20037;-89
2023/05/06 05:34:55;;;;;;;13.82;9.57;;;11.30;99.90;;;;;;5033570;28;20048;-89
2023/05/06 05:37:21;;;;;;;14.55;10.35;;;11.40;99.90;;;;;;5046773;28;20037;-88
2023/05/06 05:39:51;;;;;;;14.15;10.25;;;11.40;99.90;;;;;;5011777;28;20051;-89
2023/05/06 05:42:17;;;;;;;13.60;7.78;;;11.60;99.90;;;;;;5039244;28;20064;-89
2023/05/06 05:44:43;;;;;;;14.15;9.35;;;11.40;99.90;;;;;;5046979;28;20060;-86
2023/05/06 05:47:09;;;;;;;13.00;9.00;;;11.40;99.90;;;;;;5050529;28;20551;-88
2023/05/06 05:49:35;;;;;;;19.17;11.95;;;11.50;99.90;;;;;;5026908;28;20057;-88
2023/05/06 05:52:00;;;;;;;17.45;11.60;;;11.50;99.90;;;;;;5040342;28;20044;-88
2023/05/06 05:54:26;;;;;;;14.80;10.15;;;11.60;99.90;;;;;;5038427;28;20225;-88
2023/05/06 05:56:52;;;;;;;17.75;11.95;;;11.60;99.90;;;;;;5012434;28;20051;-88
2023/05/06 05:59:17;;;;;;;18.15;11.80;;;11.60;99.90;;;;;;5055389;28;20172;-89
2023/05/06 06:01:43;;;;;;;19.77;12.45;;;11.80;99.90;;;;;;5040505;28;20049;-88
2023/05/06 06:04:09;;;;;;;21.17;13.98;;;11.70;99.90;;;;;;5036522;28;20041;-88
2023/05/06 06:06:35;;;;;;;21.20;14.45;;;11.70;99.90;;;;;;5031659;28;20036;-88
2023/05/06 06:09:01;;;;;;;19.40;13.35;;;11.70;99.90;;;;;;5037364;28;20480;-88
2023/05/06 06:11:27;;;;;;;18.77;13.23;;;11.80;99.90;;;;;;5007779;28;20095;-89
2023/05/06 06:13:53;;;;;;;18.58;12.88;;;11.80;99.90;;;;;;5021281;28;20048;-86
2023/05/06 06:16:18;;;;;;;21.48;13.63;;;11.90;99.90;;;;;;5021385;28;20122;-88
2023/05/06 06:18:44;;;;;;;19.05;12.63;;;11.90;99.90;;;;;;5018342;28;20446;-86
2023/05/06 06:21:10;;;;;;;19.17;13.05;;;11.90;99.90;;;;;;4994129;28;20041;-86
2023/05/06 06:23:36;;;;;;;23.83;15.75;;;12.00;99.90;;;;;;5003378;28;20049;-87
2023/05/06 06:26:03;;;;;;;27.20;16.30;;;12.00;99.90;;;;;;5015399;28;20037;-86
2023/05/06 06:28:32;;;;;;;22.95;14.63;;;12.00;99.90;;;;;;5025800;28;20056;-85
2023/05/06 06:30:58;;;;;;;14.55;9.73;;;12.10;99.90;;;;;;5040890;28;20029;-87
2023/05/06 06:33:24;;;;;;;17.30;11.73;;;12.10;99.90;;;;;;5036744;28;20048;-86
2023/05/06 06:35:50;;;;;;;16.35;11.13;;;12.10;99.90;;;;;;5023535;28;20049;-86
2023/05/06 06:38:15;;;;;;;20.15;13.75;;;12.10;99.90;;;;;;5038130;28;20037;-86
2023/05/06 06:40:41;;;;;;;27.55;18.75;;;12.10;99.90;;;;;;5028251;28;20052;-87
2023/05/06 06:43:07;;;;;;;20.90;14.15;;;12.30;99.90;;;;;;5046013;28;20037;-86
2023/05/06 06:45:33;;;;;;;16.20;10.02;;;12.20;99.90;;;;;;5026840;28;20101;-91
2023/05/06 06:47:59;;;;;;;25.30;18.05;;;12.20;99.90;;;;;;5051864;28;20087;-91
2023/05/06 06:50:25;;;;;;;28.45;18.38;;;12.20;99.90;;;;;;5027606;28;20079;-91
2023/05/06 06:52:51;;;;;;;30.45;20.15;;;12.20;99.90;;;;;;5019728;28;20041;-88
2023/05/06 06:55:17;;;;;;;31.30;20.35;;;12.30;99.90;;;;;;5038304;28;20116;-89
2023/05/06 06:57:43;;;;;;;22.02;14.05;;;12.30;99.90;;;;;;5022074;28;20499;-89
2023/05/06 07:00:11;;;;;;;30.17;20.13;;;12.40;99.90;;;;;;5021782;28;20106;-89
2023/05/06 07:02:36;;;;;;;32.40;21.13;;;12.30;99.90;;;;;;5016559;28;20044;-89
2023/05/06 07:05:03;;;;;;;32.90;21.67;;;12.40;99.90;;;;;;5019844;28;20041;-89
2023/05/06 07:07:28;;;;;;;34.10;21.48;;;12.40;99.90;;;;;;5032527;28;20041;-85
2023/05/06 07:09:55;;;;;;;37.60;22.13;;;12.50;99.90;;;;;;5019635;28;20053;-86
2023/05/06 07:12:25;;;;;;;30.83;21.30;;;12.50;99.90;;;;;;5032099;28;20350;-85
2023/05/06 07:14:51;;;;;;;31.20;20.33;;;12.60;99.90;;;;;;5043173;28;20115;-85
2023/05/06 07:17:17;;;;;;;25.73;18.65;;;12.70;99.90;;;;;;5024319;28;20124;-86
2023/05/06 07:19:42;;;;;;;30.10;20.23;;;12.70;99.90;;;;;;5042119;28;20049;-85
2023/05/06 07:22:08;;;;;;;27.65;20.77;;;12.70;99.90;;;;;;5045476;28;20040;-86
2023/05/06 07:24:34;;;;;;;29.80;21.02;;;12.80;99.90;;;;;;5011887;28;20060;-81
2023/05/06 07:27:01;;;;;;;25.88;20.30;;;12.80;99.90;;;;;;5020392;28;20036;-79
2023/05/06 07:29:26;;;;;;;28.10;19.17;;;12.90;99.90;;;;;;5023996;28;20387;-81
2023/05/06 07:31:52;;;;;;;30.67;20.45;;;12.90;99.90;;;;;;5029339;28;20044;-82
2023/05/06 07:34:19;;;;;;;29.48;20.33;;;12.90;99.90;;;;;;5021261;28;20041;-82
2023/05/06 07:36:45;;;;;;;30.42;23.75;;;13.00;99.90;;;;;;5031898;28;20052;-81
2023/05/06 07:39:12;;;;;;;36.83;27.70;;;13.00;99.90;;;;;;5020686;28;20045;-81
2023/05/06 07:41:38;;;;;;;35.10;26.35;;;13.20;99.90;;;;;;5021857;28;20038;-82
2023/05/06 07:44:05;;;;;;;34.22;25.83;;;13.20;99.90;;;;;;5018897;28;20075;-79
2023/05/06 07:46:31;;;;;;;32.58;25.08;;;13.20;99.90;;;;;;5025344;28;20400;-81
2023/05/06 07:48:57;;;;;;;31.90;23.58;;;13.30;99.90;;;;;;4996853;28;20488;-82
2023/05/06 07:51:22;;;;;;;29.65;20.23;;;13.40;99.90;;;;;;5041442;28;20032;-82
2023/05/06 07:53:48;;;;;;;27.33;20.30;;;13.40;99.90;;;;;;5008475;28;20125;-82
2023/05/06 07:56:14;;;;;;;24.65;17.10;;;13.50;99.90;;;;;;5038201;28;20041;-82
2023/05/06 07:58:40;;;;;;;25.52;18.13;;;13.60;99.90;;;;;;5027239;28;20041;-82
2023/05/06 08:01:06;;;;;;;30.92;21.67;;;13.60;99.90;;;;;;5047294;28;20090;-81
2023/05/06 08:03:31;;;;;;;28.83;21.95;;;13.80;99.90;;;;;;5050638;28;20048;-81
2023/05/06 08:05:57;;;;;;;23.27;15.95;;;14.30;99.90;;;;;;5018268;28;20048;-81
2023/05/06 08:08:26;;;;;;;27.83;21.25;;;14.30;99.90;;;;;;5009163;28;20037;-81
2023/05/06 08:10:57;;;;;;;30.85;21.25;;;14.40;99.90;;;;;;5025609;28;20609;-81
2023/05/06 08:13:27;;;;;;;30.20;24.17;;;14.60;99.90;;;;;;5021424;28;20041;-89
2023/05/06 08:15:53;;;;;;;28.30;16.13;;;14.70;99.90;;;;;;5022566;28;20060;-82
2023/05/06 08:18:19;;;;;;;23.80;17.30;;;14.80;99.90;;;;;;5043349;28;20112;-81
2023/05/06 08:20:45;;;;;;;21.27;14.57;;;14.90;99.90;;;;;;5027550;28;20049;-81
2023/05/06 08:23:11;;;;;;;17.70;13.45;;;15.00;99.90;;;;;;5035276;28;20053;-81
2023/05/06 08:25:36;;;;;;;20.55;13.93;;;15.10;99.90;;;;;;5042131;28;20060;-81
2023/05/06 08:28:05;;;;;;;27.73;13.00;;;15.40;99.90;;;;;;5019111;28;20092;-82
2023/05/06 08:30:31;;;;;;;18.52;13.20;;;15.20;99.90;;;;;;5021183;28;20033;-82
2023/05/06 08:32:57;;;;;;;18.08;13.20;;;15.30;99.90;;;;;;5021024;28;20041;-83
2023/05/06 08:35:23;;;;;;;17.58;13.05;;;15.50;99.90;;;;;;5046919;28;20047;-81
2023/05/06 08:37:49;;;;;;;16.70;13.27;;;15.50;99.90;;;;;;5016970;28;20070;-83
2023/05/06 08:40:21;;;;;;;22.05;13.48;;;15.60;99.90;;;;;;5022637;28;20048;-81
2023/05/06 08:42:48;;;;;;;15.45;12.68;;;15.80;99.90;;;;;;5022761;28;20073;-81
2023/05/06 08:45:17;;;;;;;19.90;11.57;;;15.90;99.90;;;;;;5035141;28;20079;-84
2023/05/06 08:47:43;;;;;;;16.60;12.43;;;16.10;99.90;;;;;;5023411;28;20133;-81
2023/05/06 08:50:11;;;;;;;16.23;12.13;;;16.20;99.90;;;;;;5039065;28;20451;-82
2023/05/06 08:52:38;;;;;;;18.13;12.07;;;16.30;99.90;;;;;;5039460;28;20549;-81
2023/05/06 08:55:05;;;;;;;18.17;12.63;;;16.40;99.90;;;;;;5024982;28;20044;-81
2023/05/06 08:57:32;;;;;;;18.67;13.27;;;16.50;99.90;;;;;;5039239;28;20033;-80
2023/05/06 08:59:58;;;;;;;16.95;11.38;;;16.70;99.90;;;;;;5021536;28;20036;-81
2023/05/06 09:02:24;;;;;;;11.15;8.32;;;16.80;99.90;;;;;;5068407;23;20140;-81
2023/05/06 09:04:55;;;;;;;12.75;9.35;;;16.90;99.90;;;;;;5030672;28;20054;-81
2023/05/06 09:07:22;;;;;;;14.15;9.20;;;17.00;99.90;;;;;;5005562;28;20103;-82
2023/05/06 09:09:48;;;;;;;15.30;10.15;;;17.00;99.90;;;;;;5043097;28;20037;-82
2023/05/06 09:12:14;;;;;;;16.60;11.02;;;17.10;99.90;;;;;;5037562;28;20049;-80
2023/05/06 09:14:40;;;;;;;14.15;9.75;;;17.10;99.90;;;;;;5023646;28;20041;-81
2023/05/06 09:17:22;;;;;;;14.38;10.40;;;17.20;99.90;;;;;;5020822;28;20037;-82
2023/05/06 09:19:51;;;;;;;13.73;9.77;;;17.30;99.90;;;;;;5018760;28;20048;-82
2023/05/06 09:22:20;;;;;;;13.25;9.43;;;17.30;99.90;;;;;;5024556;28;20049;-81
2023/05/06 09:24:46;;;;;;;10.95;6.57;;;17.30;99.90;;;;;;5041827;28;20061;-83
2023/05/06 09:27:12;;;;;;;8.13;4.10;;;17.50;99.90;;;;;;5032959;28;20404;-82
2023/05/06 09:29:38;;;;;;;8.50;4.47;;;17.60;99.90;;;;;;5015711;28;20037;-82
2023/05/06 09:32:06;;;;;;;9.02;4.72;;;17.70;99.90;;;;;;5039430;28;20030;-82
2023/05/06 09:34:32;;;;;;;10.80;6.47;;;17.80;99.90;;;;;;5024116;28;20475;-82
2023/05/06 09:36:58;;;;;;;11.32;7.95;;;17.90;99.90;;;;;;5047957;28;20036;-82
2023/05/06 09:39:27;;;;;;;12.70;8.05;;;18.00;99.90;;;;;;5048392;28;20033;-82
2023/05/06 09:41:53;;;;;;;10.00;6.20;;;18.10;99.90;;;;;;5049310;28;20037;-82
2023/05/06 09:44:21;;;;;;;10.88;5.65;;;18.10;99.90;;;;;;5029115;28;20057;-82
2023/05/06 09:46:47;;;;;;;8.70;5.25;;;18.10;99.90;;;;;;5040455;28;20045;-83
2023/05/06 09:49:14;;;;;;;9.52;5.22;;;18.10;99.90;;;;;;5043164;28;20043;-81
2023/05/06 09:51:50;;;;;;;13.32;5.97;;;18.20;99.90;;;;;;5025730;28;20431;-82
2023/05/06 09:54:17;;;;;;;9.93;4.43;;;18.30;99.90;;;;;;5023532;28;20052;-83
2023/05/06 09:56:45;;;;;;;10.65;5.15;;;18.50;99.90;;;;;;5014600;28;20037;-82
2023/05/06 09:59:12;;;;;;;10.07;5.68;;;18.60;99.90;;;;;;5022757;28;20498;-81
2023/05/06 10:01:38;;;;;;;9.40;5.97;;;18.60;99.90;;;;;;5023469;28;20058;-83
2023/05/06 10:04:08;;;;;;;10.88;6.15;;;18.70;99.90;;;;;;5024549;28;20118;-85
2023/05/06 10:06:35;;;;;;;10.95;6.20;;;18.80;99.90;;;;;;5026735;28;20415;-82
2023/05/06 10:09:01;;;;;;;9.15;6.40;;;19.00;99.90;;;;;;5021715;28;20435;-83
2023/05/06 10:11:30;;;;;;;12.60;6.60;;;19.10;99.90;;;;;;5024637;28;20041;-85
2023/05/06 10:13:56;;;;;;;10.95;8.35;;;19.20;99.90;;;;;;5026490;28;20087;-83
2023/05/06 10:16:22;;;;;;;13.20;8.50;;;19.30;99.90;;;;;;5014982;28;20056;-82
2023/05/06 10:18:50;;;;;;;15.02;9.05;;;19.40;99.90;;;;;;5014976;28;20046;-82
2023/05/06 10:21:23;;;;;;;14.02;8.32;;;19.50;99.90;;;;;;5003208;28;20056;-81
2023/05/06 10:24:21;;;;;;;14.30;8.65;;;19.60;99.90;;;;;;5016218;28;20045;-82
2023/05/06 10:26:49;;;;;;;12.88;9.55;;;19.60;99.90;;;;;;5006248;28;20499;-82
2023/05/06 10:29:16;;;;;;;20.98;9.80;;;19.60;99.90;;;;;;5009484;28;20073;-83
2023/05/06 10:31:50;;;;;;;11.80;8.63;;;19.50;99.90;;;;;;5011044;28;20123;-83
2023/05/06 10:34:18;;;;;;;;;;;19.40;99.90;;;;;;5017967;28;20057;-81
2023/05/06 10:36:45;;;;;;;13.65;9.95;;;19.30;99.90;;;;;;5015515;28;19996;-82
2023/05/06 10:39:13;;;;;;;14.98;9.25;;;19.20;99.90;;;;;;5015184;28;20489;-82
2023/05/06 10:41:39;;;;;;;13.93;9.15;;;19.10;99.90;;;;;;5011154;28;20073;-82
2023/05/06 10:44:05;;;;;;;12.25;8.82;;;19.00;99.90;;;;;;4996840;28;20394;-82
2023/05/06 10:46:56;;;;;;;13.88;9.48;;;18.90;99.90;;;;;;5016916;28;20042;-82
2023/05/06 10:49:22;;;;;;;14.10;9.10;;;18.80;99.90;;;;;;5013254;28;20034;-82
2023/05/06 10:51:48;;;;;;;15.77;9.90;;;18.70;99.90;;;;;;5003745;28;20503;-82
2023/05/06 10:54:20;;;;;;;14.15;10.75;;;18.60;99.90;;;;;;5013023;28;20084;-82
2023/05/06 10:56:48;;;;;;;17.80;11.23;;;18.50;99.90;;;;;;5012061;28;20069;-81
2023/05/06 10:59:19;;;;;;;16.60;11.23;;;18.40;99.90;;;;;;5012311;28;20060;-81
2023/05/06 11:02:05;;;;;;;12.93;10.63;;;18.30;99.90;;;;;;5028114;28;20050;-82
2023/05/06 11:04:32;;;;;;;17.23;11.18;;;18.20;99.90;;;;;;5006210;28;20045;-81
2023/05/06 11:07:08;;;;;;;16.25;11.15;;;18.20;99.90;;;;;;5014470;28;20045;-82
2023/05/06 11:10:06;;;;;;;16.08;13.02;;;18.20;99.90;;;;;;5020595;28;20099;-81
2023/05/06 11:12:50;;;;;;;17.30;12.20;;;18.30;99.90;;;;;;5036763;28;20037;-82
2023/05/06 11:15:39;;;;;;;16.17;13.00;;;18.60;99.90;;;;;;5013664;28;20087;-81
2023/05/06 11:18:23;;;;;;;21.15;12.93;;;18.80;99.90;;;;;;5004421;28;20508;-83
2023/05/06 11:21:09;;;;;;;17.65;12.98;;;19.20;99.90;;;;;;5019719;28;20057;-81
2023/05/06 11:23:41;;;;;;;19.08;13.85;;;19.40;99.90;;;;;;5005847;28;20056;-82
2023/05/06 11:26:11;;;;;;;18.67;14.27;;;19.50;99.90;;;;;;5039520;28;20037;-82
2023/05/06 11:28:37;;;;;;;19.73;13.23;;;19.50;99.90;;;;;;5032173;28;20041;-82
2023/05/06 11:31:03;;;;;;;19.55;13.18;;;19.50;99.90;;;;;;5014172;28;20041;-82
2023/05/06 11:33:33;;;;;;;16.92;12.95;;;19.50;99.90;;;;;;5037150;28;20068;-82
2023/05/06 11:36:00;;;;;;;15.95;11.07;;;19.40;99.90;;;;;;5029018;28;20029;-81
2023/05/06 11:38:39;;;;;;;15.90;11.80;;;19.30;99.90;;;;;;5033954;28;20139;-82
2023/05/06 11:41:06;;;;;;;18.45;13.25;;;19.30;99.90;;;;;;5017084;28;20041;-82
2023/05/06 11:43:32;;;;;;;17.33;12.10;;;19.40;99.90;;;;;;5013297;28;20454;-81
2023/05/06 11:45:58;;;;;;;17.52;13.20;;;19.60;99.90;;;;;;5032477;28;20120;-81
2023/05/06 11:48:24;;;;;;;17.75;12.70;;;19.80;99.90;;;;;;5031599;28;20095;-81
2023/05/06 11:50:49;;;;;;;20.02;13.77;;;20.00;99.90;;;;;;5014377;28;20042;-82
2023/05/06 11:53:21;;;;;;;17.67;12.95;;;20.20;99.90;;;;;;5017257;28;20041;-81
2023/05/06 11:55:49;;;;;;;19.15;13.25;;;20.40;99.90;;;;;;5041834;28;20073;-82
2023/05/06 11:58:17;;;;;;;20.38;14.95;;;20.50;99.90;;;;;;5037599;28;20535;-82
2023/05/06 12:01:00;;;;;;;21.92;14.02;;;20.60;99.90;;;;;;5031235;28;20045;-82
2023/05/06 12:03:28;;;;;;;20.58;13.80;;;20.60;99.90;;;;;;5036103;28;20520;-82
2023/05/06 12:05:57;;;;;;;18.17;12.88;;;20.60;99.90;;;;;;5016456;28;20042;-82
2023/05/06 12:08:34;;;;;;;17.85;12.85;;;20.50;99.90;;;;;;5041310;28;20038;-82
2023/05/06 12:11:10;;;;;;;18.65;12.68;;;20.40;99.90;;;;;;5013563;28;20044;-82
2023/05/06 12:13:36;;;;;;;18.95;12.55;;;20.40;99.90;;;;;;5017283;28;20029;-82
2023/05/06 12:16:03;;;;;;;16.02;13.15;;;20.40;99.90;;;;;;5013174;28;20439;-82
2023/05/06 12:18:30;;;;;;;17.88;12.88;;;20.30;99.90;;;;;;5036872;28;20467;-82
2023/05/06 12:20:56;;;;;;;18.05;13.63;;;20.20;99.90;;;;;;5005990;28;20518;-82
2023/05/06 12:23:22;;;;;;;16.80;13.50;;;20.10;99.90;;;;;;5011710;28;20051;-82
2023/05/06 12:26:05;;;;;;;18.95;14.05;;;20.00;99.90;;;;;;5037105;28;20037;-81
2023/05/06 12:28:32;;;;;;;19.13;14.40;;;19.90;99.90;;;;;;5017625;28;20044;-81
2023/05/06 12:30:58;;;;;;;18.90;14.55;;;19.80;99.90;;;;;;5020945;28;20108;-81
2023/05/06 12:33:24;;;;;;;20.02;14.85;;;19.80;99.90;;;;;;5013550;28;20071;-81
2023/05/06 12:35:51;;;;;;;16.13;13.52;;;19.60;99.90;;;;;;5001247;28;20429;-81
2023/05/06 12:38:17;;;;;;;17.40;14.00;;;19.50;99.90;;;;;;5023800;28;20076;-81